Terminal Aerodrome Forecast
Issued by NWS

Home | Current Version | Previous Version | Text Only | Print | Product List | Glossary On
Versions: 1 2 3 4 5 6 7 8 9 10 11 12 13 14 15 16 17 18 19 20 21 22 23 24 25 26 27 28 29 30
777
FTUS45 KREV 212019 AAA
TAFTRK
TAF AMD
KTRK 212019Z 2120/2218 30008G17KT P6SM -RASN BKN030 OVC045
      TEMPO 2120/2123 2SM -SHSN BKN025 OVC030
     FM220300 VRB03KT P6SM VCSH BKN035 OVC080=

USA.gov is the U.S. government's official web portal to all federal, state and local government web resources and services.